This is the latest recevied weather packets stored in our database for station/object KA3ZXO. If no packets are shown the sender has not sent any weather packets the latest 1 day(s).
| Time | Temp. | Humidity | Pressure | Rain* | Wind** | Luminosity | Snow |
|---|---|---|---|---|---|---|---|
| 1778103313 | 21.11° C | 79% | 1008.6 hPa | 0 mm | - | 95 W/m² | - |
| 1778102109 | 21.11° C | 77% | 1008.7 hPa | 0 mm | - | 142 W/m² | - |
| 1778100908 | 20.56° C | 79% | 1008.4 hPa | 0 mm | - | 159 W/m² | - |
| 1778100308 | 20.56° C | 82% | 1008.7 hPa | 0 mm | - | 113 W/m² | - |
| 1778099102 | 20° C | 84% | 1008.7 hPa | 0 mm | - | 82 W/m² | - |
| 1778098502 | 20° C | 83% | 1008.7 hPa | 0 mm | - | 53 W/m² | - |
| 1778096100 | 20° C | 82% | 1009.5 hPa | 0 mm | - | 69 W/m² | - |
| 1778094898 | 20° C | 83% | 1009.5 hPa | 0 mm | - | 101 W/m² | - |
| 1778093697 | 20° C | 82% | 1009.5 hPa | 0 mm | - | 145 W/m² | - |
| 1778093097 | 20° C | 83% | 1009.7 hPa | 0 mm | - | 73 W/m² | - |
| 1778090690 | 18.89° C | 87% | 1009.9 hPa | 0 mm | - | 124 W/m² | - |
| 1778089490 | 18.89° C | 87% | 1010.3 hPa | 0 mm | - | 126 W/m² | - |
| 1778088290 | 18.33° C | 91% | 1010.2 hPa | 0 mm | - | 148 W/m² | - |
| 1778081765 | 17.22° C | 91% | 1011.4 hPa | 1.27 mm | - | 83 W/m² | - |
| 1778081165 | 17.78° C | 89% | 1011.3 hPa | 0 mm | - | 64 W/m² | - |
| 1778079960 | 17.78° C | 86% | 1011.4 hPa | 0 mm | - | 39 W/m² | - |
| 1778077550 | 17.78° C | 86% | 1011.5 hPa | 1.27 mm | - | 54 W/m² | - |
| 1778076945 | 18.33° C | 83% | 1011.5 hPa | 0 mm | - | 73 W/m² | - |
| 1778075139 | 19.44° C | 73% | 1011.8 hPa | 0 mm | - | 39 W/m² | - |
| 1778068520 | 18.89° C | 71% | 1011.6 hPa | 0 mm | - | 39 W/m² | - |
| 1778067915 | 18.89° C | 71% | 1011.5 hPa | 0 mm | - | 28 W/m² | - |
| 1778067311 | 18.89° C | 71% | 1011.4 hPa | 0 mm | - | 31 W/m² | - |
| 1778066106 | 18.33° C | 71% | 1011.4 hPa | 0 mm | - | 29 W/m² | - |
| 1778064905 | 17.78° C | 73% | 1011.2 hPa | 0 mm | - | 14 W/m² | - |
| 1778063096 | 17.78° C | 74% | 1010.8 hPa | 0 mm | - | 7 W/m² | - |
* Rain latest hour (hover to see other rain measurements)
** Current wind speed in m/s (hover to see current wind gust speed)